Huvudsida
METAR-TAF:

METAR-TAF

Flygplatser :

Atyraws flygplats

Atyraw, Kazakstan

latitud: 47-07-19N, longitud: 051-49-17E, höjd: -22 m

Aktuellt väderrapport

Denna rapport gjordes för 27 minuter sedan, klockan 14:30 UTC
Vind 16 kt från sydväst
Temperatur 24°C
Fuktighet 38%
Tryck 1018 hPa
Sikt 10 km eller mer
Inga moln under 1 500 m eller inga cumulonimbus

METAR: UATG 201430Z 23008MPS CAVOK 24/09 Q1018 R14/CLRD70 NOSIG RMK QFE765/1021

Tid: 20:57 (14:57 UTC)

Väderprognos

Denna rapport gjordes för 3 timmar och 55 minuter sedan, klockan 11:02 UTC
Prognos gäller från 20 kl. 12 UTC till 21 kl. 12 UTC
Vind 10 kt från nord
Sikt 10 km eller mer
Inga moln under 1 500 m eller inga cumulonimbus
Blir
från 20 kl. 13 UTC till 20 kl. 14 UTC
Vind 14 kt från väst/sydväst
Blir
från 20 kl. 16 UTC till 20 kl. 17 UTC
Vind 4 kt varierande vindriktning

TAF: UATG 201102Z 2012/2112 36005MPS CAVOK TX28/2112Z TN13/2101Z BECMG 2013/2014 24007MPS BECMG 2016/2017 VRB02MPS

Aktuella väderrapporter och prognoser från 4000 flygplatser (METAR- och TAF-rapporter).

De tillgängliga stationerna syns som gula och röda prickar på kartan.

För musen över prickarna för att se namnen på stationerna.

Klicka sedan för att få väderrapporter och prognoser.

För att ändra kartan: Klicka på de gröna knapparna med ett svart kors på för att zooma in; den gröna knappen med ett streck på för att zooma ut; eller på de gröna pilarna för angränsande kartor.


METAR-TAF: